sensor_id;sensor_type;location;lat;lon;timestamp;pressure;altitude;pressure_sealevel;temperature;humidity
65190;BME280;51777;53.570;9.984;2023-08-24T00:00:41;101601.91;;;20.68;100.00
65190;BME280;51777;53.570;9.984;2023-08-24T00:03:08;101605.53;;;20.67;100.00
65190;BME280;51777;53.570;9.984;2023-08-24T00:05:34;101610.41;;;20.70;100.00
65190;BME280;51777;53.570;9.984;2023-08-24T00:08:04;101601.91;;;20.68;100.00
65190;BME280;51777;53.570;9.984;2023-08-24T00:10:30;101605.75;;;20.65;100.00
65190;BME280;51777;53.570;9.984;2023-08-24T00:12:55;101601.56;;;20.49;100.00
65190;BME280;51777;53.570;9.984;2023-08-24T00:15:20;101601.31;;;20.44;100.00
65190;BME280;51777;53.570;9.984;2023-08-24T00:17:46;101597.06;;;20.43;100.00
65190;BME280;51777;53.570;9.984;2023-08-24T00:20:11;101600.63;;;20.36;100.00
65190;BME280;51777;53.570;9.984;2023-08-24T00:22:38;101588.22;;;20.30;100.00
65190;BME280;51777;53.570;9.984;2023-08-24T00:25:06;101593.88;;;20.27;100.00
65190;BME280;51777;53.570;9.984;2023-08-24T00:27:31;101590.13;;;20.36;100.00
65190;BME280;51777;53.570;9.984;2023-08-24T00:29:56;101589.53;;;20.40;100.00
65190;BME280;51777;53.570;9.984;2023-08-24T00:32:23;101596.25;;;20.43;100.00
65190;BME280;51777;53.570;9.984;2023-08-24T00:34:48;101596.81;;;20.38;100.00
65190;BME280;51777;53.570;9.984;2023-08-24T00:37:13;101589.94;;;20.37;100.00
65190;BME280;51777;53.570;9.984;2023-08-24T00:39:39;101593.63;;;20.43;100.00
65190;BME280;51777;53.570;9.984;2023-08-24T00:42:04;101591.47;;;20.46;100.00
65190;BME280;51777;53.570;9.984;2023-08-24T00:44:31;101587.81;;;20.47;100.00
65190;BME280;51777;53.570;9.984;2023-08-24T00:46:58;101587.19;;;20.24;100.00
65190;BME280;51777;53.570;9.984;2023-08-24T00:49:24;101585.78;;;20.28;100.00
65190;BME280;51777;53.570;9.984;2023-08-24T00:51:50;101585.72;;;20.21;100.00
65190;BME280;51777;53.570;9.984;2023-08-24T00:54:15;101582.94;;;20.23;100.00
65190;BME280;51777;53.570;9.984;2023-08-24T00:56:41;101584.97;;;20.28;100.00
65190;BME280;51777;53.570;9.984;2023-08-24T00:59:07;101589.72;;;20.17;100.00
65190;BME280;51777;53.570;9.984;2023-08-24T01:01:33;101593.34;;;20.16;100.00
65190;BME280;51777;53.570;9.984;2023-08-24T01:03:58;101593.13;;;20.11;100.00
65190;BME280;51777;53.570;9.984;2023-08-24T01:06:24;101591.81;;;20.01;100.00
65190;BME280;51777;53.570;9.984;2023-08-24T01:08:50;101590.41;;;20.05;100.00
65190;BME280;51777;53.570;9.984;2023-08-24T01:11:48;101600.19;;;20.11;100.00
65190;BME280;51777;53.570;9.984;2023-08-24T01:14:21;101601.63;;;20.13;100.00
65190;BME280;51777;53.570;9.984;2023-08-24T01:16:50;101609.69;;;20.12;100.00
65190;BME280;51777;53.570;9.984;2023-08-24T01:19:49;101602.16;;;20.09;100.00
65190;BME280;51777;53.570;9.984;2023-08-24T01:25:11;101603.66;;;19.97;100.00
65190;BME280;51777;53.570;9.984;2023-08-24T01:27:37;101604.03;;;19.93;100.00
65190;BME280;51777;53.570;9.984;2023-08-24T01:30:04;101607.13;;;19.97;100.00
65190;BME280;51777;53.570;9.984;2023-08-24T01:32:33;101609.56;;;19.99;100.00
65190;BME280;51777;53.570;9.984;2023-08-24T01:35:07;101606.94;;;19.99;100.00
65190;BME280;51777;53.570;9.984;2023-08-24T01:37:33;101605.31;;;19.98;100.00
65190;BME280;51777;53.570;9.984;2023-08-24T01:40:06;101606.66;;;19.93;100.00
65190;BME280;51777;53.570;9.984;2023-08-24T01:42:44;101601.16;;;19.88;100.00
65190;BME280;51777;53.570;9.984;2023-08-24T01:45:13;101601.53;;;19.85;100.00
65190;BME280;51777;53.570;9.984;2023-08-24T01:47:41;101604.44;;;19.76;100.00
65190;BME280;51777;53.570;9.984;2023-08-24T01:50:08;101601.44;;;19.79;100.00
65190;BME280;51777;53.570;9.984;2023-08-24T01:52:35;101599.00;;;19.77;100.00
65190;BME280;51777;53.570;9.984;2023-08-24T01:55:00;101603.63;;;19.75;100.00
65190;BME280;51777;53.570;9.984;2023-08-24T01:57:26;101597.13;;;19.71;100.00
65190;BME280;51777;53.570;9.984;2023-08-24T01:59:51;101593.25;;;19.67;100.00
65190;BME280;51777;53.570;9.984;2023-08-24T02:02:17;101592.00;;;19.63;100.00
65190;BME280;51777;53.570;9.984;2023-08-24T02:04:42;101595.16;;;19.58;100.00
65190;BME280;51777;53.570;9.984;2023-08-24T02:07:08;101587.66;;;19.55;100.00
65190;BME280;51777;53.570;9.984;2023-08-24T02:09:33;101589.81;;;19.52;100.00
65190;BME280;51777;53.570;9.984;2023-08-24T02:11:58;101586.09;;;19.46;100.00
65190;BME280;51777;53.570;9.984;2023-08-24T02:14:24;101584.22;;;19.40;100.00
65190;BME280;51777;53.570;9.984;2023-08-24T02:16:49;101587.22;;;19.37;100.00
65190;BME280;51777;53.570;9.984;2023-08-24T02:19:15;101580.69;;;19.33;100.00
65190;BME280;51777;53.570;9.984;2023-08-24T02:21:40;101576.44;;;19.32;100.00
65190;BME280;51777;53.570;9.984;2023-08-24T02:24:06;101577.63;;;19.29;100.00
65190;BME280;51777;53.570;9.984;2023-08-24T02:26:32;101568.13;;;19.28;100.00
65190;BME280;51777;53.570;9.984;2023-08-24T02:28:57;101569.13;;;19.27;100.00
65190;BME280;51777;53.570;9.984;2023-08-24T02:31:23;101577.53;;;19.23;100.00
65190;BME280;51777;53.570;9.984;2023-08-24T02:33:48;101569.69;;;19.23;100.00
65190;BME280;51777;53.570;9.984;2023-08-24T02:36:14;101572.31;;;19.23;100.00
65190;BME280;51777;53.570;9.984;2023-08-24T02:38:40;101572.47;;;19.21;100.00
65190;BME280;51777;53.570;9.984;2023-08-24T02:41:07;101569.03;;;19.21;100.00
65190;BME280;51777;53.570;9.984;2023-08-24T02:43:33;101572.47;;;19.21;100.00
65190;BME280;51777;53.570;9.984;2023-08-24T02:46:03;101570.03;;;19.20;100.00
65190;BME280;51777;53.570;9.984;2023-08-24T02:48:29;101569.56;;;19.16;100.00
65190;BME280;51777;53.570;9.984;2023-08-24T02:50:57;101560.91;;;19.01;100.00
65190;BME280;51777;53.570;9.984;2023-08-24T02:53:22;101560.72;;;19.02;100.00
65190;BME280;51777;53.570;9.984;2023-08-24T02:55:48;101556.91;;;19.05;100.00
65190;BME280;51777;53.570;9.984;2023-08-24T02:58:13;101563.78;;;19.06;100.00
65190;BME280;51777;53.570;9.984;2023-08-24T03:00:39;101559.53;;;19.05;100.00
65190;BME280;51777;53.570;9.984;2023-08-24T03:03:04;101564.78;;;19.05;100.00
65190;BME280;51777;53.570;9.984;2023-08-24T03:05:31;101559.28;;;19.00;100.00
65190;BME280;51777;53.570;9.984;2023-08-24T03:07:57;101558.66;;;18.98;100.00
65190;BME280;51777;53.570;9.984;2023-08-24T03:10:23;101559.63;;;18.97;100.00
65190;BME280;51777;53.570;9.984;2023-08-24T03:12:48;101563.25;;;18.96;100.00
65190;BME280;51777;53.570;9.984;2023-08-24T03:15:14;101558.38;;;18.93;100.00
65190;BME280;51777;53.570;9.984;2023-08-24T03:17:41;101559.53;;;18.90;100.00
65190;BME280;51777;53.570;9.984;2023-08-24T03:20:07;101559.91;;;18.87;100.00
65190;BME280;51777;53.570;9.984;2023-08-24T03:22:32;101558.44;;;18.85;100.00
65190;BME280;51777;53.570;9.984;2023-08-24T03:24:58;101557.81;;;18.83;100.00
65190;BME280;51777;53.570;9.984;2023-08-24T03:27:23;101556.38;;;18.80;100.00
65190;BME280;51777;53.570;9.984;2023-08-24T03:29:48;101554.94;;;18.77;100.00
65190;BME280;51777;53.570;9.984;2023-08-24T03:32:14;101552.69;;;18.74;100.00
65190;BME280;51777;53.570;9.984;2023-08-24T03:34:39;101549.38;;;18.72;100.00
65190;BME280;51777;53.570;9.984;2023-08-24T03:37:05;101550.75;;;18.68;100.00
65190;BME280;51777;53.570;9.984;2023-08-24T03:39:30;101553.75;;;18.65;100.00
65190;BME280;51777;53.570;9.984;2023-08-24T03:41:56;101555.41;;;18.58;100.00
65190;BME280;51777;53.570;9.984;2023-08-24T03:44:22;101550.16;;;18.58;100.00
65190;BME280;51777;53.570;9.984;2023-08-24T03:46:47;101547.53;;;18.58;100.00
65190;BME280;51777;53.570;9.984;2023-08-24T03:49:12;101543.28;;;18.57;100.00
65190;BME280;51777;53.570;9.984;2023-08-24T03:51:38;101540.69;;;18.57;100.00
65190;BME280;51777;53.570;9.984;2023-08-24T03:54:03;101547.72;;;18.57;100.00
65190;BME280;51777;53.570;9.984;2023-08-24T03:56:30;101543.47;;;18.56;100.00
65190;BME280;51777;53.570;9.984;2023-08-24T03:58:56;101546.09;;;18.56;100.00
65190;BME280;51777;53.570;9.984;2023-08-24T04:01:21;101545.47;;;18.54;100.00
65190;BME280;51777;53.570;9.984;2023-08-24T04:03:47;101548.25;;;18.52;100.00
65190;BME280;51777;53.570;9.984;2023-08-24T04:06:13;101553.69;;;18.51;100.00
65190;BME280;51777;53.570;9.984;2023-08-24T04:08:38;101557.28;;;18.49;100.00
65190;BME280;51777;53.570;9.984;2023-08-24T04:11:04;101554.84;;;18.48;100.00
65190;BME280;51777;53.570;9.984;2023-08-24T04:13:29;101557.81;;;18.45;100.00
65190;BME280;51777;53.570;9.984;2023-08-24T04:15:55;101539.47;;;18.45;100.00
65190;BME280;51777;53.570;9.984;2023-08-24T04:18:20;101542.09;;;18.45;100.00
65190;BME280;51777;53.570;9.984;2023-08-24T04:20:46;101538.03;;;18.42;100.00
65190;BME280;51777;53.570;9.984;2023-08-24T04:23:13;101545.06;;;18.42;100.00
65190;BME280;51777;53.570;9.984;2023-08-24T04:25:40;101535.41;;;18.42;100.00
65190;BME280;51777;53.570;9.984;2023-08-24T04:28:05;101536.22;;;18.43;100.00
65190;BME280;51777;53.570;9.984;2023-08-24T04:30:31;101533.78;;;18.41;100.00
65190;BME280;51777;53.570;9.984;2023-08-24T04:32:56;101538.84;;;18.43;100.00
65190;BME280;51777;53.570;9.984;2023-08-24T04:35:25;101540.66;;;18.42;100.00
65190;BME280;51777;53.570;9.984;2023-08-24T04:37:51;101548.25;;;18.37;100.00
65190;BME280;51777;53.570;9.984;2023-08-24T04:40:16;101544.31;;;18.33;100.00
65190;BME280;51777;53.570;9.984;2023-08-24T04:42:41;101544.50;;;18.32;100.00
65190;BME280;51777;53.570;9.984;2023-08-24T04:45:07;101541.25;;;18.30;100.00
65190;BME280;51777;53.570;9.984;2023-08-24T04:47:32;101549.75;;;18.32;100.00
65190;BME280;51777;53.570;9.984;2023-08-24T04:49:58;101542.34;;;18.35;100.00
65190;BME280;51777;53.570;9.984;2023-08-24T04:52:24;101559.53;;;18.38;100.00
65190;BME280;51777;53.570;9.984;2023-08-24T04:54:49;101560.34;;;18.38;100.00
65190;BME280;51777;53.570;9.984;2023-08-24T04:57:16;101554.28;;;18.38;100.00
65190;BME280;51777;53.570;9.984;2023-08-24T04:59:41;101558.53;;;18.39;100.00
65190;BME280;51777;53.570;9.984;2023-08-24T05:02:07;101552.13;;;18.41;100.00
65190;BME280;51777;53.570;9.984;2023-08-24T05:04:33;101559.97;;;18.41;100.00
65190;BME280;51777;53.570;9.984;2023-08-24T05:06:58;101553.56;;;18.44;100.00
65190;BME280;51777;53.570;9.984;2023-08-24T05:09:24;101568.78;;;18.48;100.00
65190;BME280;51777;53.570;9.984;2023-08-24T05:11:49;101556.81;;;18.46;100.00
65190;BME280;51777;53.570;9.984;2023-08-24T05:14:14;101565.16;;;18.49;100.00
65190;BME280;51777;53.570;9.984;2023-08-24T05:16:40;101574.63;;;18.51;100.00
65190;BME280;51777;53.570;9.984;2023-08-24T05:19:05;101571.84;;;18.52;100.00
65190;BME280;51777;53.570;9.984;2023-08-24T05:21:31;101573.19;;;18.48;100.00
65190;BME280;51777;53.570;9.984;2023-08-24T05:23:56;101585.00;;;18.44;100.00
65190;BME280;51777;53.570;9.984;2023-08-24T05:26:21;101578.25;;;18.49;100.00
65190;BME280;51777;53.570;9.984;2023-08-24T05:28:50;101580.28;;;18.39;100.00
65190;BME280;51777;53.570;9.984;2023-08-24T05:31:17;101573.47;;;18.30;100.00
65190;BME280;51777;53.570;9.984;2023-08-24T05:33:43;101574.59;;;18.36;100.00
65190;BME280;51777;53.570;9.984;2023-08-24T05:36:08;101582.09;;;18.39;100.00
65190;BME280;51777;53.570;9.984;2023-08-24T05:38:34;101583.72;;;18.40;100.00
65190;BME280;51777;53.570;9.984;2023-08-24T05:40:59;101582.13;;;18.54;100.00
65190;BME280;51777;53.570;9.984;2023-08-24T05:43:25;101580.56;;;18.67;100.00
65190;BME280;51777;53.570;9.984;2023-08-24T05:45:50;101585.19;;;18.80;100.00
65190;BME280;51777;53.570;9.984;2023-08-24T05:48:16;101579.06;;;18.88;100.00
65190;BME280;51777;53.570;9.984;2023-08-24T05:50:47;101579.34;;;18.93;100.00
65190;BME280;51777;53.570;9.984;2023-08-24T05:53:12;101582.25;;;18.98;100.00
65190;BME280;51777;53.570;9.984;2023-08-24T05:55:38;101576.09;;;18.91;100.00
65190;BME280;51777;53.570;9.984;2023-08-24T05:58:04;101574.38;;;18.98;100.00
65190;BME280;51777;53.570;9.984;2023-08-24T06:00:29;101579.34;;;19.07;100.00
65190;BME280;51777;53.570;9.984;2023-08-24T06:02:55;101580.06;;;19.16;100.00
65190;BME280;51777;53.570;9.984;2023-08-24T06:05:21;101577.25;;;19.18;100.00
65190;BME280;51777;53.570;9.984;2023-08-24T06:07:46;101578.00;;;19.26;100.00
65190;BME280;51777;53.570;9.984;2023-08-24T06:10:12;101578.69;;;19.20;100.00
65190;BME280;51777;53.570;9.984;2023-08-24T06:12:37;101585.13;;;19.32;100.00
65190;BME280;51777;53.570;9.984;2023-08-24T06:15:04;101581.78;;;19.39;100.00
65190;BME280;51777;53.570;9.984;2023-08-24T06:17:30;101584.31;;;19.32;100.00
65190;BME280;51777;53.570;9.984;2023-08-24T06:19:55;101576.78;;;19.44;100.00
65190;BME280;51777;53.570;9.984;2023-08-24T06:22:21;101568.47;;;19.55;100.00
65190;BME280;51777;53.570;9.984;2023-08-24T06:24:46;101557.88;;;19.63;100.00
65190;BME280;51777;53.570;9.984;2023-08-24T06:27:12;101548.25;;;19.70;100.00
65190;BME280;51777;53.570;9.984;2023-08-24T06:29:37;101551.41;;;19.80;100.00
65190;BME280;51777;53.570;9.984;2023-08-24T06:32:02;101549.28;;;19.90;100.00
65190;BME280;51777;53.570;9.984;2023-08-24T06:34:28;101541.50;;;19.97;100.00
65190;BME280;51777;53.570;9.984;2023-08-24T06:36:53;101529.78;;;20.00;100.00
65190;BME280;51777;53.570;9.984;2023-08-24T06:39:19;101538.28;;;20.02;100.00
65190;BME280;51777;53.570;9.984;2023-08-24T06:41:45;101543.34;;;19.82;100.00
65190;BME280;51777;53.570;9.984;2023-08-24T06:44:10;101545.47;;;19.93;100.00
65190;BME280;51777;53.570;9.984;2023-08-24T06:46:37;101545.47;;;19.93;100.00
65190;BME280;51777;53.570;9.984;2023-08-24T06:49:02;101542.31;;;19.98;100.00
65190;BME280;51777;53.570;9.984;2023-08-24T06:51:32;101535.41;;;19.97;100.00
65190;BME280;51777;53.570;9.984;2023-08-24T06:53:58;101546.31;;;20.21;100.00
65190;BME280;51777;53.570;9.984;2023-08-24T06:56:24;101536.91;;;20.27;100.00
65190;BME280;51777;53.570;9.984;2023-08-24T06:58:50;101534.75;;;20.37;100.00
65190;BME280;51777;53.570;9.984;2023-08-24T07:01:16;101528.25;;;20.33;100.00
65190;BME280;51777;53.570;9.984;2023-08-24T07:03:41;101521.13;;;20.27;100.00
65190;BME280;51777;53.570;9.984;2023-08-24T07:06:07;101526.19;;;20.29;100.00
65190;BME280;51777;53.570;9.984;2023-08-24T07:08:33;101522.63;;;20.36;100.00
65190;BME280;51777;53.570;9.984;2023-08-24T07:10:58;101515.91;;;20.34;100.00
65190;BME280;51777;53.570;9.984;2023-08-24T07:13:24;101518.53;;;20.34;100.00
65190;BME280;51777;53.570;9.984;2023-08-24T07:15:51;101513.28;;;20.34;100.00
65190;BME280;51777;53.570;9.984;2023-08-24T07:18:17;101523.31;;;20.45;100.00
65190;BME280;51777;53.570;9.984;2023-08-24T07:20:42;101523.78;;;20.55;100.00
65190;BME280;51777;53.570;9.984;2023-08-24T07:23:07;101524.66;;;20.62;100.00
65190;BME280;51777;53.570;9.984;2023-08-24T07:25:33;101527.22;;;20.56;100.00
65190;BME280;51777;53.570;9.984;2023-08-24T07:28:00;101530.19;;;20.46;100.00
65190;BME280;51777;53.570;9.984;2023-08-24T07:30:26;101541.25;;;20.63;100.00
65190;BME280;51777;53.570;9.984;2023-08-24T07:32:55;101540.94;;;20.79;100.00
65190;BME280;51777;53.570;9.984;2023-08-24T07:35:21;101539.91;;;20.80;100.00
65190;BME280;51777;53.570;9.984;2023-08-24T07:37:52;101522.00;;;20.90;100.00
65190;BME280;51777;53.570;9.984;2023-08-24T07:40:17;101522.47;;;21.07;100.00
65190;BME280;51777;53.570;9.984;2023-08-24T07:42:44;101514.91;;;21.25;100.00
65190;BME280;51777;53.570;9.984;2023-08-24T07:45:10;101526.69;;;21.36;100.00
65190;BME280;51777;53.570;9.984;2023-08-24T07:47:37;101525.47;;;21.38;100.00
65190;BME280;51777;53.570;9.984;2023-08-24T07:50:02;101530.53;;;21.40;100.00
65190;BME280;51777;53.570;9.984;2023-08-24T07:52:28;101528.78;;;21.60;100.00
65190;BME280;51777;53.570;9.984;2023-08-24T07:54:54;101531.66;;;21.72;100.00
65190;BME280;51777;53.570;9.984;2023-08-24T07:57:20;101529.41;;;21.82;100.00
65190;BME280;51777;53.570;9.984;2023-08-24T08:06:58;101528.06;;;22.46;100.00
65190;BME280;51777;53.570;9.984;2023-08-24T08:09:36;101519.69;;;22.75;100.00
65190;BME280;51777;53.570;9.984;2023-08-24T08:15:24;101509.66;;;23.10;100.00
65190;BME280;51777;53.570;9.984;2023-08-24T08:20:39;101504.47;;;22.77;100.00
65190;BME280;51777;53.570;9.984;2023-08-24T08:23:17;101500.03;;;23.29;100.00
65190;BME280;51777;53.570;9.984;2023-08-24T08:25:42;101503.97;;;23.52;100.00
65190;BME280;51777;53.570;9.984;2023-08-24T08:28:09;101508.59;;;23.56;100.00
65190;BME280;51777;53.570;9.984;2023-08-24T08:30:34;101503.75;;;23.60;100.00
65190;BME280;51777;53.570;9.984;2023-08-24T08:33:00;101504.13;;;23.95;100.00
65190;BME280;51777;53.570;9.984;2023-08-24T08:35:26;101509.31;;;25.55;100.00
65190;BME280;51777;53.570;9.984;2023-08-24T08:37:51;101521.09;;;27.79;100.00
65190;BME280;51777;53.570;9.984;2023-08-24T08:40:19;101540.22;;;31.68;100.00
65190;BME280;51777;53.570;9.984;2023-08-24T08:42:44;101549.53;;;33.16;100.00
65190;BME280;51777;53.570;9.984;2023-08-24T08:45:11;101549.56;;;34.19;100.00
65190;BME280;51777;53.570;9.984;2023-08-24T08:47:37;101560.34;;;34.90;99.07
65190;BME280;51777;53.570;9.984;2023-08-24T08:50:03;101561.16;;;35.80;98.35
65190;BME280;51777;53.570;9.984;2023-08-24T08:52:29;101576.78;;;37.34;95.80
65190;BME280;51777;53.570;9.984;2023-08-24T08:54:54;101568.06;;;36.46;96.15
65190;BME280;51777;53.570;9.984;2023-08-24T08:57:22;101559.47;;;36.99;96.37
65190;BME280;51777;53.570;9.984;2023-08-24T08:59:49;101556.72;;;37.49;96.38
65190;BME280;51777;53.570;9.984;2023-08-24T09:02:19;101575.00;;;38.45;92.36
65190;BME280;51777;53.570;9.984;2023-08-24T09:04:47;101573.13;;;38.54;91.78
65190;BME280;51777;53.570;9.984;2023-08-24T09:07:13;101569.97;;;38.52;92.17
65190;BME280;51777;53.570;9.984;2023-08-24T09:09:39;101558.06;;;38.62;92.21
65190;BME280;51777;53.570;9.984;2023-08-24T09:12:06;101554.78;;;37.94;92.92
65190;BME280;51777;53.570;9.984;2023-08-24T09:14:33;101562.81;;;38.08;93.43
65190;BME280;51777;53.570;9.984;2023-08-24T09:16:58;101573.28;;;39.32;91.70
65190;BME280;51777;53.570;9.984;2023-08-24T09:19:29;101570.06;;;39.73;91.53
65190;BME280;51777;53.570;9.984;2023-08-24T09:22:00;101580.69;;;39.78;90.68
65190;BME280;51777;53.570;9.984;2023-08-24T09:24:33;101577.84;;;39.75;90.47
65190;BME280;51777;53.570;9.984;2023-08-24T09:26:59;101573.91;;;39.12;91.22
65190;BME280;51777;53.570;9.984;2023-08-24T09:29:25;101587.59;;;40.22;90.60
65190;BME280;51777;53.570;9.984;2023-08-24T09:31:51;101583.72;;;39.85;90.63
65190;BME280;51777;53.570;9.984;2023-08-24T09:34:20;101583.63;;;39.13;91.25
65190;BME280;51777;53.570;9.984;2023-08-24T09:36:46;101579.56;;;39.88;91.03
65190;BME280;51777;53.570;9.984;2023-08-24T09:39:12;101578.88;;;38.53;91.77
65190;BME280;51777;53.570;9.984;2023-08-24T09:41:49;101583.13;;;39.28;92.02
65190;BME280;51777;53.570;9.984;2023-08-24T09:44:17;101573.75;;;38.42;92.04
65190;BME280;51777;53.570;9.984;2023-08-24T09:46:43;101557.31;;;36.87;93.99
65190;BME280;51777;53.570;9.984;2023-08-24T09:49:12;101561.00;;;37.72;93.20
65190;BME280;51777;53.570;9.984;2023-08-24T09:51:39;101545.84;;;37.04;94.21
65190;BME280;51777;53.570;9.984;2023-08-24T09:54:06;101549.13;;;37.15;94.18
65190;BME280;51777;53.570;9.984;2023-08-24T09:56:40;101541.88;;;37.60;94.43
65190;BME280;51777;53.570;9.984;2023-08-24T09:59:14;101546.19;;;38.80;91.96
65190;BME280;51777;53.570;9.984;2023-08-24T10:01:44;101532.47;;;37.80;93.43
65190;BME280;51777;53.570;9.984;2023-08-24T10:04:14;101531.31;;;38.52;92.98
65190;BME280;51777;53.570;9.984;2023-08-24T10:06:40;101532.09;;;38.43;93.44
65190;BME280;51777;53.570;9.984;2023-08-24T10:09:12;101515.59;;;37.07;94.94
65190;BME280;51777;53.570;9.984;2023-08-24T10:11:45;101518.22;;;37.35;94.33
65190;BME280;51777;53.570;9.984;2023-08-24T10:14:25;101506.19;;;36.68;94.93
65190;BME280;51777;53.570;9.984;2023-08-24T10:16:52;101490.88;;;36.91;95.24
65190;BME280;51777;53.570;9.984;2023-08-24T10:19:18;101492.44;;;36.29;96.16
65190;BME280;51777;53.570;9.984;2023-08-24T10:21:46;101504.78;;;36.85;95.12
65190;BME280;51777;53.570;9.984;2023-08-24T10:24:12;101503.16;;;36.84;95.46
65190;BME280;51777;53.570;9.984;2023-08-24T10:26:39;101502.09;;;35.88;95.21
65190;BME280;51777;53.570;9.984;2023-08-24T10:29:06;101485.56;;;33.05;99.57
65190;BME280;51777;53.570;9.984;2023-08-24T10:31:32;101462.72;;;33.80;99.61
65190;BME280;51777;53.570;9.984;2023-08-24T10:33:59;101456.47;;;34.99;97.75
65190;BME280;51777;53.570;9.984;2023-08-24T10:36:25;101445.94;;;35.82;96.46
65190;BME280;51777;53.570;9.984;2023-08-24T10:39:02;101442.22;;;35.31;96.56
65190;BME280;51777;53.570;9.984;2023-08-24T10:41:46;101443.03;;;35.32;96.21
65190;BME280;51777;53.570;9.984;2023-08-24T10:44:20;101446.31;;;35.62;97.20
65190;BME280;51777;53.570;9.984;2023-08-24T10:49:37;101451.28;;;35.54;96.27
65190;BME280;51777;53.570;9.984;2023-08-24T10:52:22;101448.09;;;35.52;96.09
65190;BME280;51777;53.570;9.984;2023-08-24T10:54:50;101440.72;;;35.72;96.25
65190;BME280;51777;53.570;9.984;2023-08-24T10:57:24;101428.91;;;34.51;97.52
65190;BME280;51777;53.570;9.984;2023-08-24T11:00:06;101427.81;;;33.80;98.54
65190;BME280;51777;53.570;9.984;2023-08-24T11:02:49;101431.22;;;34.15;98.31
65190;BME280;51777;53.570;9.984;2023-08-24T11:05:15;101420.66;;;34.24;99.15
65190;BME280;51777;53.570;9.984;2023-08-24T11:07:52;101415.56;;;33.98;98.92
65190;BME280;51777;53.570;9.984;2023-08-24T11:10:20;101412.66;;;34.42;98.50
65190;BME280;51777;53.570;9.984;2023-08-24T11:20:47;101378.47;;;32.45;100.00
65190;BME280;51777;53.570;9.984;2023-08-24T11:23:17;101372.78;;;31.92;100.00
65190;BME280;51777;53.570;9.984;2023-08-24T11:25:44;101366.31;;;32.03;100.00
65190;BME280;51777;53.570;9.984;2023-08-24T11:28:10;101369.16;;;32.77;100.00
65190;BME280;51777;53.570;9.984;2023-08-24T11:30:36;101368.59;;;32.80;100.00
65190;BME280;51777;53.570;9.984;2023-08-24T11:33:02;101374.75;;;33.19;100.00
65190;BME280;51777;53.570;9.984;2023-08-24T11:35:29;101363.44;;;33.22;100.00
65190;BME280;51777;53.570;9.984;2023-08-24T11:37:59;101376.47;;;33.05;100.00
65190;BME280;51777;53.570;9.984;2023-08-24T11:40:24;101382.03;;;32.75;100.00
65190;BME280;51777;53.570;9.984;2023-08-24T11:42:58;101370.16;;;32.91;100.00
65190;BME280;51777;53.570;9.984;2023-08-24T11:45:30;101357.44;;;32.18;100.00
65190;BME280;51777;53.570;9.984;2023-08-24T11:48:04;101356.94;;;32.60;100.00
65190;BME280;51777;53.570;9.984;2023-08-24T11:50:30;101337.72;;;32.53;100.00
65190;BME280;51777;53.570;9.984;2023-08-24T11:52:56;101329.91;;;32.12;100.00
65190;BME280;51777;53.570;9.984;2023-08-24T11:55:25;101329.09;;;32.61;100.00
65190;BME280;51777;53.570;9.984;2023-08-24T11:57:51;101322.69;;;32.08;100.00
65190;BME280;51777;53.570;9.984;2023-08-24T12:00:20;101305.97;;;31.67;100.00
65190;BME280;51777;53.570;9.984;2023-08-24T12:02:48;101287.84;;;30.47;100.00
65190;BME280;51777;53.570;9.984;2023-08-24T12:05:24;101285.47;;;30.45;100.00
65190;BME280;51777;53.570;9.984;2023-08-24T12:07:54;101272.81;;;30.05;100.00
65190;BME280;51777;53.570;9.984;2023-08-24T12:10:21;101272.25;;;29.98;100.00
65190;BME280;51777;53.570;9.984;2023-08-24T12:12:48;101258.78;;;30.45;100.00
65190;BME280;51777;53.570;9.984;2023-08-24T12:15:18;101267.53;;;31.52;100.00
65190;BME280;51777;53.570;9.984;2023-08-24T12:17:46;101274.06;;;31.96;100.00
65190;BME280;51777;53.570;9.984;2023-08-24T12:20:19;101274.84;;;32.46;100.00
65190;BME280;51777;53.570;9.984;2023-08-24T12:22:54;101278.34;;;33.09;100.00
65190;BME280;51777;53.570;9.984;2023-08-24T12:25:23;101283.41;;;32.48;100.00
65190;BME280;51777;53.570;9.984;2023-08-24T12:27:53;101283.84;;;32.94;100.00
65190;BME280;51777;53.570;9.984;2023-08-24T12:30:20;101278.00;;;32.92;100.00
65190;BME280;51777;53.570;9.984;2023-08-24T12:32:48;101274.78;;;33.19;100.00
65190;BME280;51777;53.570;9.984;2023-08-24T12:35:16;101280.31;;;32.98;100.00
65190;BME280;51777;53.570;9.984;2023-08-24T12:37:42;101275.50;;;33.00;100.00
65190;BME280;51777;53.570;9.984;2023-08-24T12:40:07;101283.09;;;32.49;100.00
65190;BME280;51777;53.570;9.984;2023-08-24T12:42:33;101282.94;;;32.40;100.00
65190;BME280;51777;53.570;9.984;2023-08-24T12:44:59;101276.72;;;33.13;100.00
65190;BME280;51777;53.570;9.984;2023-08-24T12:47:24;101266.13;;;32.25;100.00
65190;BME280;51777;53.570;9.984;2023-08-24T12:49:51;101258.41;;;31.59;100.00
65190;BME280;51777;53.570;9.984;2023-08-24T12:52:18;101230.75;;;30.53;100.00
65190;BME280;51777;53.570;9.984;2023-08-24T12:54:45;101210.41;;;30.11;100.00
65190;BME280;51777;53.570;9.984;2023-08-24T12:57:10;101202.97;;;30.23;100.00
65190;BME280;51777;53.570;9.984;2023-08-24T12:59:35;101193.13;;;30.80;100.00
65190;BME280;51777;53.570;9.984;2023-08-24T13:02:01;101193.28;;;31.39;100.00
65190;BME280;51777;53.570;9.984;2023-08-24T13:04:27;101191.03;;;32.45;100.00
65190;BME280;51777;53.570;9.984;2023-08-24T13:06:55;101199.63;;;31.53;100.00
65190;BME280;51777;53.570;9.984;2023-08-24T13:09:20;101195.66;;;31.36;100.00